Time;durP1;ratioP1;P1;durP2;ratioP2;P2;SDS_P1;SDS_P2;PMS_P1;PMS_P2;Temp;Humidity;BMP_temperature;BMP_pressure;BME280_temperature;BME280_humidity;BME280_pressure;Samples;Min_cycle;Max_cycle;Signal;HPM_P1;HPM_P2
2022/03/13 00:00:46;;;;;;;1.25;1.10;;;;;;;19.63;34.07;97357.19;10029394;29;20102;-57
2022/03/13 00:06:09;;;;;;;1.50;1.40;;;;;;;19.63;34.08;97365.31;10029101;29;20053;-57
2022/03/13 00:11:29;;;;;;;1.50;1.40;;;;;;;19.62;34.06;97363.69;10003779;29;20062;-57
2022/03/13 00:16:50;;;;;;;1.58;1.27;;;;;;;19.62;34.08;97352.88;10029186;29;20049;-57
2022/03/13 00:22:12;;;;;;;1.10;1.00;;;;;;;19.61;34.09;97354.81;10016567;29;20562;-57
2022/03/13 00:27:34;;;;;;;1.92;1.30;;;;;;;19.61;34.06;97345.91;10010141;29;20455;-57
2022/03/13 00:32:53;;;;;;;1.20;1.10;;;;;;;19.62;34.04;97352.88;10013358;29;20136;-58
2022/03/13 00:38:13;;;;;;;1.75;1.35;;;;;;;19.61;33.96;97343.19;10020272;29;20087;-57
2022/03/13 00:43:32;;;;;;;1.30;1.20;;;;;;;19.59;34.06;97340.00;10016465;29;20168;-57
2022/03/13 00:48:51;;;;;;;1.92;1.35;;;;;;;19.57;33.92;97340.31;10002397;29;20054;-58
2022/03/13 00:54:11;;;;;;;1.20;1.10;;;;;;;19.56;34.25;97344.94;10016567;29;20057;-57
2022/03/13 00:59:30;;;;;;;1.55;1.10;;;;;;;19.56;33.89;97328.72;10016553;29;20093;-58
2022/03/13 01:04:49;;;;;;;1.50;1.30;;;;;;;19.55;34.05;97321.72;10016136;29;20469;-57
2022/03/13 01:10:09;;;;;;;1.13;1.00;;;;;;;19.53;34.00;97315.81;10016371;29;20680;-57
2022/03/13 01:15:30;;;;;;;1.20;1.10;;;;;;;19.52;34.03;97306.13;10016560;29;20081;-57
2022/03/13 01:20:50;;;;;;;1.33;1.23;;;;;;;19.51;33.99;97299.13;10015371;29;20077;-58
2022/03/13 01:26:22;;;;;;;1.40;1.30;;;;;;;19.51;33.80;97298.31;10015124;29;20050;-58
2022/03/13 01:31:46;;;;;;;1.20;1.10;;;;;;;19.50;33.98;97294.84;10002411;29;20054;-57
2022/03/13 01:37:08;;;;;;;1.30;1.20;;;;;;;19.47;33.98;97287.34;10027207;29;20049;-58
2022/03/13 01:42:28;;;;;;;1.13;1.02;;;;;;;19.48;33.88;97291.66;10017526;29;20064;-57
2022/03/13 01:47:48;;;;;;;1.50;1.40;;;;;;;19.46;33.92;97280.31;10022593;29;20573;-58
2022/03/13 01:53:08;;;;;;;1.30;1.20;;;;;;;19.45;33.83;97276.03;10022431;29;20061;-58
2022/03/13 01:58:27;;;;;;;1.92;1.20;;;;;;;19.44;33.90;97269.03;10022303;29;20525;-57
2022/03/13 02:03:47;;;;;;;1.35;1.25;;;;;;;19.44;33.95;97271.75;10008878;29;20061;-57
2022/03/13 02:09:07;;;;;;;1.40;1.30;;;;;;;19.42;33.96;97270.47;10022027;29;20395;-58
2022/03/13 02:14:27;;;;;;;1.50;1.20;;;;;;;19.40;33.96;97276.16;10021422;29;20053;-58
2022/03/13 02:19:47;;;;;;;1.50;1.40;;;;;;;19.39;33.91;97274.59;10027231;29;20068;-58
2022/03/13 02:25:07;;;;;;;1.52;1.27;;;;;;;19.39;33.97;97269.19;10021061;29;20064;-57
2022/03/13 02:30:26;;;;;;;1.35;1.25;;;;;;;19.36;33.89;97269.81;10021356;29;20069;-58
2022/03/13 02:35:57;;;;;;;1.30;1.20;;;;;;;19.36;33.76;97259.00;10019320;29;20057;-57
2022/03/13 02:41:17;;;;;;;1.63;1.30;;;;;;;19.34;33.94;97256.59;10020043;29;20060;-57
2022/03/13 02:46:46;;;;;;;1.20;1.10;;;;;;;19.33;33.91;97265.03;10020493;29;20126;-57
2022/03/13 02:52:06;;;;;;;1.38;1.27;;;;;;;19.32;33.93;97255.31;10020439;29;20054;-57
2022/03/13 02:57:25;;;;;;;1.40;1.30;;;;;;;19.31;33.89;97257.25;10014960;29;20061;-58
2022/03/13 03:02:45;;;;;;;1.70;1.30;;;;;;;19.29;33.84;97254.06;10005825;29;20058;-57
2022/03/13 03:08:04;;;;;;;1.40;1.30;;;;;;;19.27;33.72;97250.88;10019278;29;20058;-58
2022/03/13 03:13:24;;;;;;;1.50;1.40;;;;;;;19.26;33.85;97256.56;10019707;29;20058;-57
2022/03/13 03:18:43;;;;;;;1.33;1.23;;;;;;;19.23;33.79;97260.69;10019741;29;20070;-57
2022/03/13 03:24:17;;;;;;;1.60;1.40;;;;;;;19.22;33.68;97258.31;10019720;29;20555;-57
2022/03/13 03:29:37;;;;;;;1.50;1.40;;;;;;;19.20;33.73;97255.91;10006371;29;20466;-57
2022/03/13 03:34:57;;;;;;;1.20;1.10;;;;;;;19.20;33.94;97249.72;10009567;29;20062;-58
2022/03/13 03:40:21;;;;;;;2.13;1.35;;;;;;;19.19;33.69;97246.22;10017650;29;20058;-58
2022/03/13 03:45:40;;;;;;;1.33;1.23;;;;;;;19.16;33.71;97247.63;10018749;29;20054;-57
2022/03/13 03:51:00;;;;;;;1.45;1.20;;;;;;;19.14;33.71;97244.44;10030766;29;20045;-58
2022/03/13 03:56:19;;;;;;;1.58;1.20;;;;;;;19.13;33.71;97248.25;10014545;29;20562;-58
2022/03/13 04:01:40;;;;;;;1.60;1.50;;;;;;;19.11;33.66;97255.88;10030555;29;20487;-57
2022/03/13 04:07:00;;;;;;;1.38;1.27;;;;;;;19.09;33.63;97251.88;10028906;29;20046;-57
2022/03/13 04:12:19;;;;;;;1.42;1.30;;;;;;;19.09;33.63;97249.16;10017283;29;20073;-58
2022/03/13 04:17:39;;;;;;;1.30;1.20;;;;;;;19.07;33.78;97240.59;10025703;29;20053;-58
2022/03/13 04:22:58;;;;;;;1.63;1.30;;;;;;;19.06;33.69;97249.81;10017325;29;20705;-57
2022/03/13 04:28:20;;;;;;;2.15;1.40;;;;;;;19.04;33.59;97252.03;10017325;29;20058;-59
2022/03/13 04:33:40;;;;;;;1.35;1.25;;;;;;;19.02;33.67;97249.63;10011845;29;20478;-57
2022/03/13 04:39:01;;;;;;;1.60;1.38;;;;;;;19.00;33.77;97246.44;10017128;29;20061;-58
2022/03/13 04:44:21;;;;;;;1.70;1.40;;;;;;;18.99;33.77;97242.13;10010545;29;20058;-58
2022/03/13 04:49:41;;;;;;;1.73;1.40;;;;;;;18.99;33.65;97247.53;10003926;29;20053;-58
2022/03/13 04:55:00;;;;;;;1.30;1.20;;;;;;;18.96;33.72;97257.06;10016512;29;20507;-57
2022/03/13 05:00:19;;;;;;;1.65;1.40;;;;;;;18.95;33.71;97251.97;10016054;29;20727;-58
2022/03/13 05:05:40;;;;;;;1.50;1.40;;;;;;;18.94;33.71;97250.38;10016520;29;20057;-57
2022/03/13 05:11:00;;;;;;;1.42;1.33;;;;;;;18.92;33.74;97252.59;10016362;29;20054;-58
2022/03/13 05:16:19;;;;;;;1.73;1.35;;;;;;;18.91;33.72;97256.38;10016003;29;20061;-57
2022/03/13 05:21:40;;;;;;;1.35;1.25;;;;;;;18.89;33.67;97266.69;10023376;29;20122;-57
2022/03/13 05:26:59;;;;;;;1.50;1.40;;;;;;;18.89;33.61;97272.09;10035753;29;20383;-57
2022/03/13 05:32:19;;;;;;;1.50;1.40;;;;;;;18.86;33.63;97268.13;10023505;29;20154;-57
2022/03/13 05:37:38;;;;;;;1.40;1.25;;;;;;;18.85;33.65;97271.91;10034812;29;20058;-57
2022/03/13 05:43:02;;;;;;;1.30;1.20;;;;;;;18.83;33.65;97278.72;10035212;29;20042;-57
2022/03/13 05:48:22;;;;;;;1.38;1.27;;;;;;;18.81;33.58;97280.94;10017106;29;20054;-57
2022/03/13 05:53:41;;;;;;;1.67;1.38;;;;;;;18.82;33.67;97287.91;10020932;29;20181;-57
2022/03/13 05:59:01;;;;;;;1.63;1.35;;;;;;;18.82;33.81;97301.41;10022383;29;20053;-57
2022/03/13 06:04:22;;;;;;;1.33;1.23;;;;;;;18.83;33.66;97300.31;10021857;29;20073;-58
2022/03/13 06:09:41;;;;;;;1.60;1.50;;;;;;;18.85;33.52;97312.41;10018931;29;20344;-57
2022/03/13 06:15:01;;;;;;;1.90;1.25;;;;;;;18.86;33.58;97300.50;10022647;29;20116;-58
2022/03/13 06:20:20;;;;;;;1.30;1.20;;;;;;;18.89;33.67;97304.50;9993529;29;20086;-57
2022/03/13 06:25:43;;;;;;;1.23;1.13;;;;;;;18.89;33.68;97309.88;10021783;29;20058;-58
2022/03/13 06:31:02;;;;;;;1.60;1.50;;;;;;;18.90;33.71;97306.88;10020785;29;20054;-57
2022/03/13 06:36:22;;;;;;;1.42;1.33;;;;;;;18.92;33.68;97303.88;10033433;29;20046;-57
2022/03/13 06:41:43;;;;;;;1.30;1.20;;;;;;;18.94;33.54;97301.69;10021813;29;20094;-57
2022/03/13 06:47:03;;;;;;;1.40;1.30;;;;;;;18.95;33.70;97290.56;10033367;29;20556;-58
2022/03/13 06:52:23;;;;;;;1.70;1.60;;;;;;;18.96;33.65;97294.06;10009011;29;20070;-57
2022/03/13 06:57:43;;;;;;;1.50;1.40;;;;;;;18.98;33.46;97294.56;10033500;29;20103;-57
2022/03/13 07:03:03;;;;;;;1.52;1.40;;;;;;;19.02;33.53;97309.03;10020133;29;20502;-58
2022/03/13 07:08:22;;;;;;;1.95;1.42;;;;;;;19.04;33.68;97301.41;10027803;29;20562;-58
2022/03/13 07:13:45;;;;;;;2.05;1.30;;;;;;;19.08;33.54;97297.00;10028123;29;20124;-57
2022/03/13 07:19:05;;;;;;;1.50;1.33;;;;;;;19.11;34.03;97296.38;10014444;29;20065;-58
2022/03/13 07:24:24;;;;;;;1.50;1.40;;;;;;;19.15;33.60;97297.34;10032150;29;20054;-57
2022/03/13 07:29:44;;;;;;;1.30;1.20;;;;;;;19.21;33.75;97306.13;10033558;29;20402;-58
2022/03/13 07:35:03;;;;;;;1.50;1.40;;;;;;;19.25;33.71;97295.47;10027377;29;20059;-58
2022/03/13 07:40:23;;;;;;;1.45;1.35;;;;;;;19.29;33.73;97291.88;10019457;29;20061;-57
2022/03/13 07:45:42;;;;;;;1.42;1.33;;;;;;;19.34;33.77;97299.03;10019357;29;20146;-58
2022/03/13 07:51:06;;;;;;;1.27;1.17;;;;;;;19.39;33.75;97296.22;10018075;29;20127;-58
2022/03/13 07:56:27;;;;;;;1.40;1.30;;;;;;;19.44;33.73;97290.66;10024836;29;20054;-58
2022/03/13 08:01:48;;;;;;;1.20;1.10;;;;;;;19.49;33.62;97295.94;10017209;29;20058;-58
2022/03/13 08:07:07;;;;;;;1.60;1.42;;;;;;;19.53;33.64;97285.31;10017886;29;20054;-58
2022/03/13 08:12:27;;;;;;;1.58;1.45;;;;;;;19.58;33.62;97277.03;10027737;29;20054;-58
2022/03/13 08:17:47;;;;;;;1.30;1.20;;;;;;;19.62;33.64;97278.03;10018655;29;20081;-58
2022/03/13 08:23:06;;;;;;;1.50;1.40;;;;;;;19.67;33.65;97277.09;10016054;29;20118;-57
2022/03/13 08:28:26;;;;;;;1.55;1.30;;;;;;;19.72;33.61;97279.69;10017281;29;20389;-58
2022/03/13 08:33:46;;;;;;;1.23;1.13;;;;;;;19.77;33.54;97282.22;10016041;29;20049;-57
2022/03/13 08:39:07;;;;;;;1.40;1.30;;;;;;;19.82;33.41;97287.50;10016795;29;20623;-57
2022/03/13 08:44:26;;;;;;;1.50;1.30;;;;;;;19.86;33.60;97276.84;10002099;29;20069;-58
2022/03/13 08:49:46;;;;;;;2.85;1.20;;;;;;;19.90;33.59;97273.19;10017355;29;20493;-58
2022/03/13 08:55:08;;;;;;;1.80;1.35;;;;;;;19.95;33.33;97273.06;10019261;29;20372;-57
2022/03/13 09:00:28;;;;;;;1.50;1.40;;;;;;;20.00;33.55;97266.69;10016012;29;20061;-58
2022/03/13 09:05:48;;;;;;;1.42;1.20;;;;;;;20.03;33.41;97274.19;10016205;29;20064;-58
2022/03/13 09:11:08;;;;;;;1.95;1.35;;;;;;;20.06;33.48;97270.84;10025772;29;20042;-58
2022/03/13 09:16:28;;;;;;;1.40;1.30;;;;;;;20.08;33.57;97267.84;10016219;29;20462;-58
2022/03/13 09:21:48;;;;;;;1.50;1.40;;;;;;;20.10;33.43;97268.31;10016626;29;20095;-57
2022/03/13 09:27:07;;;;;;;1.38;1.20;;;;;;;20.11;33.46;97267.19;10015454;29;20050;-58
2022/03/13 09:32:28;;;;;;;1.17;1.08;;;;;;;20.11;33.63;97267.19;10015316;29;20065;-58
2022/03/13 09:37:49;;;;;;;1.20;1.10;;;;;;;20.15;33.54;97254.66;10012751;29;20057;-58
2022/03/13 09:43:09;;;;;;;1.20;1.10;;;;;;;20.17;33.57;97262.41;10011289;29;20065;-57
2022/03/13 09:48:28;;;;;;;1.85;1.20;;;;;;;20.16;33.57;97253.50;10016030;29;20475;-58
2022/03/13 09:53:49;;;;;;;1.35;1.25;;;;;;;20.18;33.48;97254.00;10016543;29;20061;-57
2022/03/13 09:59:09;;;;;;;1.25;1.15;;;;;;;20.19;33.55;97242.06;10027668;29;20049;-58
2022/03/13 10:04:29;;;;;;;1.65;1.27;;;;;;;20.21;33.73;97239.03;10018125;29;20482;-58
2022/03/13 10:09:51;;;;;;;6.15;1.40;;;;;;;20.21;33.68;97242.56;10020799;29;20065;-57
2022/03/13 10:15:12;;;;;;;2.30;1.20;;;;;;;20.22;33.77;97240.63;10020035;29;20681;-58
2022/03/13 10:20:35;;;;;;;1.13;1.05;;;;;;;20.22;33.89;97233.31;10025839;29;20050;-58
2022/03/13 10:25:54;;;;;;;3.10;1.38;;;;;;;20.23;33.85;97218.69;10021436;29;20054;-57
2022/03/13 10:31:17;;;;;;;1.90;1.00;;;;;;;20.23;33.95;97213.28;10021425;29;20418;-57
2022/03/13 10:36:37;;;;;;;0.98;0.88;;;;;;;20.23;33.91;97215.97;10021447;29;20058;-58
2022/03/13 10:42:03;;;;;;;1.77;1.13;;;;;;;20.23;33.89;97221.38;10033753;29;20057;-57
2022/03/13 10:47:25;;;;;;;1.77;1.20;;;;;;;20.24;33.83;97214.06;10009340;29;20053;-57
2022/03/13 10:52:47;;;;;;;1.20;1.10;;;;;;;20.23;33.87;97215.97;10021299;29;20061;-57
2022/03/13 10:58:06;;;;;;;1.58;1.30;;;;;;;20.24;34.00;97211.34;10020145;29;20460;-58
2022/03/13 11:03:26;;;;;;;2.22;0.95;;;;;;;20.23;33.96;97207.84;10020294;29;20054;-57
2022/03/13 11:08:54;;;;;;;1.48;1.15;;;;;;;20.24;34.00;97201.31;10020931;29;20054;-57
2022/03/13 11:14:18;;;;;;;1.40;1.20;;;;;;;20.23;33.96;97199.75;10019978;29;20440;-58
2022/03/13 11:19:42;;;;;;;2.03;1.20;;;;;;;20.23;33.90;97205.16;10025492;29;20066;-57
2022/03/13 11:25:07;;;;;;;1.67;1.15;;;;;;;20.23;34.00;97198.94;10009298;29;20054;-57
2022/03/13 11:30:35;;;;;;;1.95;1.13;;;;;;;20.22;34.09;97192.72;10031453;29;20050;-57
2022/03/13 11:36:30;;;;;;;2.33;1.20;;;;;;;20.21;34.10;97183.03;10018755;29;20083;-57
2022/03/13 11:41:49;;;;;;;1.05;0.95;;;;;;;20.21;34.15;97183.03;10005518;29;20054;-57
2022/03/13 11:47:23;;;;;;;2.15;1.10;;;;;;;20.22;33.97;97181.91;10017469;29;20073;-57
2022/03/13 11:52:44;;;;;;;1.55;1.08;;;;;;;20.22;34.21;97176.50;10028796;29;20050;-58
2022/03/13 11:58:04;;;;;;;2.35;1.00;;;;;;;20.21;34.12;97176.81;10030858;29;20053;-58
2022/03/13 12:03:24;;;;;;;1.88;1.15;;;;;;;20.20;34.31;97167.91;10017194;29;20487;-57
2022/03/13 12:09:12;;;;;;;2.25;1.30;;;;;;;20.20;34.40;97162.50;10018543;29;20062;-58
2022/03/13 12:14:51;;;;;;;;;;;;;;;20.19;34.39;97168.22;10017476;29;20098;-58
2022/03/13 12:20:21;;;;;;;2.88;1.10;;;;;;;20.19;34.33;97144.69;10000525;29;19931;-58
2022/03/13 12:25:41;;;;;;;1.30;1.00;;;;;;;20.20;34.49;97138.16;10016463;29;20097;-58
2022/03/13 12:31:01;;;;;;;1.42;1.02;;;;;;;20.20;34.55;97143.56;10028682;29;20038;-58
2022/03/13 12:36:25;;;;;;;3.08;1.13;;;;;;;20.19;34.43;97136.56;10016805;29;20060;-57
2022/03/13 12:41:45;;;;;;;1.27;1.05;;;;;;;20.20;34.52;97130.03;10007135;29;20129;-58
2022/03/13 12:47:05;;;;;;;1.17;0.82;;;;;;;20.20;34.56;97131.94;10016072;29;20054;-57
2022/03/13 12:52:25;;;;;;;2.15;1.00;;;;;;;20.19;34.46;97133.88;10027078;29;20566;-58
2022/03/13 12:57:50;;;;;;;1.00;0.90;;;;;;;20.18;34.59;97137.66;10026611;29;20101;-57
2022/03/13 13:03:10;;;;;;;1.73;0.98;;;;;;;20.17;34.41;97125.28;10015359;29;20573;-58
2022/03/13 13:08:37;;;;;;;1.30;1.10;;;;;;;20.16;33.82;97129.09;10029893;29;20073;-58
2022/03/13 13:14:03;;;;;;;1.60;1.00;;;;;;;20.14;34.17;97125.91;10016223;29;20069;-57
2022/03/13 13:19:23;;;;;;;1.10;1.00;;;;;;;20.14;34.23;97125.91;10015966;29;20053;-57
2022/03/13 13:25:18;;;;;;;1.00;0.90;;;;;;;20.13;34.28;97121.59;10016408;29;20145;-57
2022/03/13 13:30:41;;;;;;;1.83;0.93;;;;;;;20.11;34.27;97119.25;10013143;29;20058;-56
2022/03/13 13:36:02;;;;;;;0.90;0.90;;;;;;;20.11;34.31;97121.13;10015597;29;20111;-57
2022/03/13 13:41:23;;;;;;;1.58;1.00;;;;;;;20.11;34.33;97113.81;10034350;29;20050;-58
2022/03/13 13:46:42;;;;;;;1.40;1.10;;;;;;;20.11;34.53;97115.72;10022623;29;20453;-58
2022/03/13 13:52:09;;;;;;;1.20;0.90;;;;;;;20.11;34.49;97116.53;10035032;29;20042;-57
2022/03/13 13:57:29;;;;;;;1.05;0.98;;;;;;;20.10;34.47;97124.97;10034451;29;20053;-58
2022/03/13 14:02:50;;;;;;;2.17;1.10;;;;;;;20.10;34.58;97117.63;10021912;29;20061;-57
2022/03/13 14:08:09;;;;;;;0.95;0.88;;;;;;;20.10;34.65;97122.25;10022336;29;20058;-58
2022/03/13 14:13:29;;;;;;;1.65;1.00;;;;;;;20.09;34.62;97124.16;10030104;29;20094;-57
2022/03/13 14:18:48;;;;;;;1.30;1.00;;;;;;;20.08;34.80;97122.56;10028179;29;20057;-58
2022/03/13 14:24:09;;;;;;;0.95;0.90;;;;;;;20.07;34.80;97110.16;10020015;29;20057;-57
2022/03/13 14:29:28;;;;;;;1.55;1.10;;;;;;;20.07;34.62;97112.88;10019155;29;20046;-58
2022/03/13 14:34:48;;;;;;;1.27;0.90;;;;;;;20.06;34.67;97113.97;10028690;29;20042;-58
2022/03/13 14:40:08;;;;;;;1.25;0.80;;;;;;;20.07;34.97;97114.75;10032637;29;20421;-58
2022/03/13 14:45:27;;;;;;;3.67;1.00;;;;;;;20.06;35.39;97124.00;10017248;29;20061;-57
2022/03/13 14:50:47;;;;;;;3.90;0.90;;;;;;;20.06;35.53;97110.50;10017245;29;20046;-58
2022/03/13 14:56:08;;;;;;;1.83;0.90;;;;;;;20.04;35.39;97113.50;10033090;29;20110;-59
2022/03/13 15:01:28;;;;;;;2.22;1.00;;;;;;;20.04;35.57;97113.50;10020761;29;20064;-57
2022/03/13 15:06:48;;;;;;;3.45;0.90;;;;;;;20.03;35.44;97117.34;10020186;29;20460;-57
2022/03/13 15:12:11;;;;;;;1.48;1.08;;;;;;;20.03;35.40;97113.81;10025921;29;20042;-57
2022/03/13 15:17:32;;;;;;;1.63;1.23;;;;;;;20.02;35.10;97120.34;10020418;29;20065;-57
2022/03/13 15:22:55;;;;;;;1.20;1.10;;;;;;;20.01;34.97;97118.75;10020545;29;20054;-57
2022/03/13 15:28:16;;;;;;;2.70;1.10;;;;;;;20.00;35.08;97114.47;10024625;29;20103;-57
2022/03/13 15:33:36;;;;;;;3.45;1.20;;;;;;;20.00;35.17;97119.88;10009458;29;20053;-57
2022/03/13 15:38:59;;;;;;;1.92;1.30;;;;;;;20.00;34.98;97128.00;10019788;29;20050;-58
2022/03/13 15:44:18;;;;;;;1.83;1.20;;;;;;;19.99;35.23;97129.09;10018850;29;20414;-57
2022/03/13 15:49:38;;;;;;;1.92;1.20;;;;;;;19.99;35.00;97134.50;10012545;29;20122;-58
2022/03/13 15:54:58;;;;;;;1.90;1.05;;;;;;;19.99;35.11;97129.88;10031195;29;20060;-58
2022/03/13 16:00:18;;;;;;;1.33;1.10;;;;;;;19.98;35.18;97130.22;10018872;29;20070;-57
2022/03/13 16:05:40;;;;;;;1.60;1.20;;;;;;;19.96;35.00;97138.66;10018512;29;20543;-58
2022/03/13 16:11:00;;;;;;;1.20;1.10;;;;;;;19.94;35.08;97144.38;10029281;29;20044;-57
2022/03/13 16:16:20;;;;;;;1.23;1.13;;;;;;;19.92;35.14;97141.19;10019587;29;20417;-58
2022/03/13 16:21:41;;;;;;;2.92;1.20;;;;;;;19.92;35.08;97145.81;10022694;29;20054;-58
2022/03/13 16:27:01;;;;;;;2.15;1.05;;;;;;;19.89;34.80;97147.22;10014528;29;20490;-58
2022/03/13 16:32:22;;;;;;;1.30;1.10;;;;;;;19.87;34.94;97154.06;10019159;29;20483;-58
2022/03/13 16:37:41;;;;;;;1.02;0.90;;;;;;;19.85;35.10;97146.25;10028464;29;20595;-57
2022/03/13 16:43:00;;;;;;;1.70;0.90;;;;;;;19.84;35.14;97154.72;10008036;29;20594;-58
2022/03/13 16:48:20;;;;;;;1.13;1.02;;;;;;;19.82;35.00;97165.84;10015795;29;20058;-58
2022/03/13 16:53:39;;;;;;;2.13;1.10;;;;;;;19.82;34.90;97179.34;10013292;29;20054;-57
2022/03/13 16:58:59;;;;;;;1.35;1.20;;;;;;;19.80;35.02;97175.34;10021348;29;20053;-58
2022/03/13 17:04:19;;;;;;;1.30;1.20;;;;;;;19.78;34.85;97175.69;10025403;29;20050;-58
2022/03/13 17:09:38;;;;;;;1.30;1.15;;;;;;;19.78;34.88;97191.09;10015929;29;20050;-58
2022/03/13 17:14:58;;;;;;;1.27;1.10;;;;;;;19.75;34.96;97192.53;10021492;29;20054;-58
2022/03/13 17:20:21;;;;;;;1.20;1.10;;;;;;;19.74;34.87;97196.38;10028320;29;20049;-58
2022/03/13 17:25:42;;;;;;;1.92;1.10;;;;;;;19.72;34.81;97195.88;10023702;29;20068;-58
2022/03/13 17:31:01;;;;;;;1.55;1.23;;;;;;;19.71;34.83;97207.75;10023197;29;20053;-58
2022/03/13 17:36:21;;;;;;;1.42;1.27;;;;;;;19.70;34.81;97211.59;10022916;29;20054;-58
2022/03/13 17:41:40;;;;;;;1.35;1.25;;;;;;;19.67;34.64;97204.91;10023536;29;20058;-58
2022/03/13 17:47:00;;;;;;;1.25;1.15;;;;;;;19.68;34.71;97211.09;10022110;29;20110;-58
2022/03/13 17:52:20;;;;;;;1.80;1.35;;;;;;;19.67;34.81;97220.31;10022737;29;20062;-58
2022/03/13 17:57:40;;;;;;;1.45;1.30;;;;;;;19.65;34.81;97217.13;10022900;29;20546;-58
2022/03/13 18:02:59;;;;;;;1.75;1.30;;;;;;;19.63;34.72;97213.94;10025677;29;20069;-58
2022/03/13 18:08:19;;;;;;;1.23;1.10;;;;;;;19.62;34.80;97215.88;10022000;29;20053;-57
2022/03/13 18:13:39;;;;;;;1.30;1.20;;;;;;;19.61;34.73;97221.56;10016330;29;20421;-58
2022/03/13 18:18:59;;;;;;;1.25;0.90;;;;;;;19.60;34.60;97214.56;10021403;29;20062;-58
2022/03/13 18:24:24;;;;;;;1.10;1.00;;;;;;;19.57;34.52;97221.41;10014590;29;20178;-58
2022/03/13 18:29:44;;;;;;;2.08;1.33;;;;;;;19.56;34.77;97209.00;10019128;29;20080;-58
2022/03/13 18:35:05;;;;;;;2.08;1.30;;;;;;;19.54;34.71;97222.84;10032993;29;20057;-58
2022/03/13 18:40:24;;;;;;;1.73;1.10;;;;;;;19.54;34.76;97213.91;10018732;29;20061;-58
2022/03/13 18:45:45;;;;;;;1.05;0.95;;;;;;;19.52;34.87;97214.25;10021021;29;20118;-58
2022/03/13 18:51:07;;;;;;;4.90;2.47;;;;;;;19.50;31.59;97218.34;10017830;29;20054;-57
2022/03/13 18:56:27;;;;;;;2.60;1.40;;;;;;;19.46;33.76;97212.78;10020161;29;20429;-58
2022/03/13 19:01:47;;;;;;;2.60;1.42;;;;;;;19.45;33.61;97213.91;10019800;29;20486;-57
2022/03/13 19:07:07;;;;;;;5.93;1.60;;;;;;;19.45;34.15;97213.91;10030285;29;20050;-58
2022/03/13 19:12:28;;;;;;;1.73;1.42;;;;;;;19.45;34.31;97215.81;10019333;29;20062;-57
2022/03/13 19:17:47;;;;;;;3.75;1.63;;;;;;;19.45;34.68;97216.59;10019565;29;20054;-57
2022/03/13 19:23:08;;;;;;;3.67;1.75;;;;;;;19.44;33.84;97220.41;10031598;29;20046;-57
2022/03/13 19:28:28;;;;;;;6.57;1.75;;;;;;;19.42;34.78;97228.03;10030641;29;20038;-57
2022/03/13 19:33:49;;;;;;;2.63;1.60;;;;;;;19.42;34.71;97221.84;10016236;29;20057;-57
2022/03/13 19:39:08;;;;;;;2.58;1.83;;;;;;;19.40;34.77;97229.44;10014431;29;20546;-57
2022/03/13 19:44:28;;;;;;;4.30;1.63;;;;;;;19.40;34.86;97234.84;10017547;29;20062;-57
2022/03/13 19:49:48;;;;;;;2.40;1.70;;;;;;;19.39;35.02;97238.69;10017722;29;20058;-57
2022/03/13 19:55:11;;;;;;;3.15;1.80;;;;;;;19.38;35.10;97239.78;10010712;29;20065;-57
2022/03/13 20:00:33;;;;;;;2.58;1.45;;;;;;;19.36;35.59;97242.78;10015250;29;20077;-57
2022/03/13 20:05:52;;;;;;;3.25;1.63;;;;;;;19.35;35.87;97243.91;10026826;29;20502;-57
2022/03/13 20:11:12;;;;;;;3.15;1.60;;;;;;;19.35;35.88;97241.22;10012371;29;20102;-58
2022/03/13 20:16:32;;;;;;;2.95;1.70;;;;;;;19.34;36.17;97247.69;10013137;29;20516;-59
2022/03/13 20:21:51;;;;;;;3.95;1.80;;;;;;;19.33;36.20;97248.81;10014462;29;20193;-58
2022/03/13 20:27:12;;;;;;;4.55;1.77;;;;;;;19.32;36.21;97245.31;10025524;29;20053;-56
2022/03/13 20:32:32;;;;;;;3.05;1.60;;;;;;;19.31;36.49;97251.84;10012559;29;20070;-55
2022/03/13 20:37:52;;;;;;;3.60;1.50;;;;;;;19.30;36.61;97249.44;10023458;29;20049;-57
2022/03/13 20:43:11;;;;;;;4.00;1.60;;;;;;;19.29;36.77;97254.06;10012843;29;20114;-57
2022/03/13 20:48:31;;;;;;;3.70;1.70;;;;;;;19.27;36.80;97255.47;10013391;29;20049;-57
2022/03/13 20:53:50;;;;;;;2.53;1.80;;;;;;;19.27;36.95;97260.88;10027395;29;20042;-57
2022/03/13 20:59:12;;;;;;;3.25;1.80;;;;;;;19.26;36.86;97264.69;10012926;29;20080;-57
2022/03/13 21:04:32;;;;;;;4.53;2.00;;;;;;;19.26;36.98;97261.97;10015625;29;20062;-57
2022/03/13 21:09:52;;;;;;;2.67;1.75;;;;;;;19.25;37.05;97263.88;9987547;29;20548;-57
2022/03/13 21:15:14;;;;;;;2.90;1.90;;;;;;;19.23;36.92;97255.31;9982064;29;20115;-57
2022/03/13 21:20:34;;;;;;;2.78;1.77;;;;;;;19.24;37.00;97258.78;9987203;29;20110;-57
2022/03/13 21:25:53;;;;;;;7.05;2.38;;;;;;;19.24;36.95;97261.50;10002154;29;20054;-57
2022/03/13 21:31:14;;;;;;;7.55;2.30;;;;;;;19.21;36.89;97254.81;10001900;29;20053;-57
2022/03/13 21:36:34;;;;;;;5.18;1.90;;;;;;;19.22;36.96;97263.72;10022477;29;20062;-57
2022/03/13 21:41:54;;;;;;;5.28;1.85;;;;;;;19.20;36.92;97257.81;10008222;29;20437;-57
2022/03/13 21:47:15;;;;;;;4.40;1.73;;;;;;;19.17;37.07;97257.34;10023142;29;20057;-57
2022/03/13 21:52:35;;;;;;;4.10;2.25;;;;;;;19.17;36.90;97262.72;10011211;29;20062;-57
2022/03/13 21:57:55;;;;;;;4.03;1.98;;;;;;;19.15;37.00;97256.84;10023282;29;20046;-57
2022/03/13 22:03:14;;;;;;;2.88;1.63;;;;;;;19.13;37.11;97253.66;10019511;29;20069;-57
2022/03/13 22:08:34;;;;;;;3.08;1.90;;;;;;;19.11;36.94;97245.06;10019036;29;20629;-57
2022/03/13 22:13:53;;;;;;;2.92;1.92;;;;;;;19.11;36.88;97244.25;10019805;29;20054;-57
2022/03/13 22:19:16;;;;;;;3.35;1.98;;;;;;;19.10;36.85;97251.56;10017111;29;20790;-57
2022/03/13 22:24:36;;;;;;;2.22;1.90;;;;;;;19.10;36.81;97248.06;10016790;29;20421;-57
2022/03/13 22:29:55;;;;;;;4.18;1.75;;;;;;;19.08;36.80;97242.19;10041476;29;20125;-56
2022/03/13 22:35:18;;;;;;;3.08;1.77;;;;;;;19.07;36.74;97235.19;10010848;29;20113;-57
2022/03/13 22:40:38;;;;;;;3.65;1.75;;;;;;;19.06;36.72;97233.59;10027298;29;20118;-57
2022/03/13 22:45:59;;;;;;;3.28;1.65;;;;;;;19.04;36.82;97242.00;10033465;29;20042;-57
2022/03/13 22:51:23;;;;;;;3.38;1.85;;;;;;;19.02;36.80;97238.81;10056287;29;20439;-57
2022/03/13 22:56:48;;;;;;;4.75;1.88;;;;;;;19.02;36.65;97240.72;10027856;29;20064;-57
2022/03/13 23:02:08;;;;;;;3.72;1.90;;;;;;;19.01;36.60;97247.22;10020592;29;20058;-57
2022/03/13 23:07:28;;;;;;;2.40;1.55;;;;;;;18.99;36.57;97244.03;10033830;29;20497;-57
2022/03/13 23:12:48;;;;;;;2.63;1.80;;;;;;;18.98;36.73;97247.88;10021002;29;20102;-57
2022/03/13 23:18:09;;;;;;;2.40;1.80;;;;;;;18.97;36.60;97249.75;10046782;29;20054;-57
2022/03/13 23:23:31;;;;;;;3.42;1.85;;;;;;;18.95;36.69;97254.66;10029090;29;20076;-57
2022/03/13 23:28:52;;;;;;;1.75;1.60;;;;;;;18.94;36.62;97261.97;10034986;29;20053;-57
2022/03/13 23:34:11;;;;;;;2.65;1.85;;;;;;;18.92;36.65;97255.28;10049016;29;20041;-57
2022/03/13 23:39:31;;;;;;;1.90;1.60;;;;;;;18.92;36.59;97252.59;10027040;29;20050;-57
2022/03/13 23:44:50;;;;;;;2.30;1.85;;;;;;;18.90;36.46;97254.81;10022520;29;20102;-57
2022/03/13 23:50:10;;;;;;;4.47;1.67;;;;;;;18.89;36.52;97261.28;10019853;29;20414;-57
2022/03/13 23:55:29;;;;;;;2.75;1.58;;;;;;;18.89;36.53;97269.38;10033905;29;20554;-57
